sensor_id;sensor_type;location;lat;lon;timestamp;temperature;humidity
44166;DHT22;30476;53.468;9.826;2023-04-30T00:00:51;7.60;99.90
44166;DHT22;30476;53.468;9.826;2023-04-30T00:03:17;7.60;99.90
44166;DHT22;30476;53.468;9.826;2023-04-30T00:05:43;7.50;99.90
44166;DHT22;30476;53.468;9.826;2023-04-30T00:08:09;7.50;99.90
44166;DHT22;30476;53.468;9.826;2023-04-30T00:10:34;7.50;99.90
44166;DHT22;30476;53.468;9.826;2023-04-30T00:13:00;7.40;99.90
44166;DHT22;30476;53.468;9.826;2023-04-30T00:15:26;7.40;99.90
44166;DHT22;30476;53.468;9.826;2023-04-30T00:17:51;7.30;99.90
44166;DHT22;30476;53.468;9.826;2023-04-30T00:20:17;7.30;99.90
44166;DHT22;30476;53.468;9.826;2023-04-30T00:22:43;7.30;99.90
44166;DHT22;30476;53.468;9.826;2023-04-30T00:25:09;7.20;99.90
44166;DHT22;30476;53.468;9.826;2023-04-30T00:27:35;7.20;99.90
44166;DHT22;30476;53.468;9.826;2023-04-30T00:30:01;7.20;99.90
44166;DHT22;30476;53.468;9.826;2023-04-30T00:32:27;7.20;99.90
44166;DHT22;30476;53.468;9.826;2023-04-30T00:34:52;7.20;99.90
44166;DHT22;30476;53.468;9.826;2023-04-30T00:37:18;7.10;99.90
44166;DHT22;30476;53.468;9.826;2023-04-30T00:39:44;7.10;99.90
44166;DHT22;30476;53.468;9.826;2023-04-30T00:42:10;7.00;99.90
44166;DHT22;30476;53.468;9.826;2023-04-30T00:44:35;7.00;99.90
44166;DHT22;30476;53.468;9.826;2023-04-30T00:47:01;7.00;99.90
44166;DHT22;30476;53.468;9.826;2023-04-30T00:49:27;6.90;99.90
44166;DHT22;30476;53.468;9.826;2023-04-30T00:51:53;6.90;99.90
44166;DHT22;30476;53.468;9.826;2023-04-30T00:54:19;6.80;99.90
44166;DHT22;30476;53.468;9.826;2023-04-30T00:56:46;6.70;99.90
44166;DHT22;30476;53.468;9.826;2023-04-30T00:59:12;6.70;99.90
44166;DHT22;30476;53.468;9.826;2023-04-30T01:01:38;6.70;99.90
44166;DHT22;30476;53.468;9.826;2023-04-30T01:04:04;6.60;99.90
44166;DHT22;30476;53.468;9.826;2023-04-30T01:06:30;6.60;99.90
44166;DHT22;30476;53.468;9.826;2023-04-30T01:08:57;6.60;99.90
44166;DHT22;30476;53.468;9.826;2023-04-30T01:11:32;6.60;99.90
44166;DHT22;30476;53.468;9.826;2023-04-30T01:14:08;6.50;99.90
44166;DHT22;30476;53.468;9.826;2023-04-30T01:16:40;6.50;99.90
44166;DHT22;30476;53.468;9.826;2023-04-30T01:21:58;6.40;99.90
44166;DHT22;30476;53.468;9.826;2023-04-30T01:30:05;6.30;99.90
44166;DHT22;30476;53.468;9.826;2023-04-30T01:32:32;6.20;99.90
44166;DHT22;30476;53.468;9.826;2023-04-30T01:34:57;6.20;99.90
44166;DHT22;30476;53.468;9.826;2023-04-30T01:37:35;6.20;99.90
44166;DHT22;30476;53.468;9.826;2023-04-30T01:40:23;6.20;99.90
44166;DHT22;30476;53.468;9.826;2023-04-30T01:43:00;6.10;99.90
44166;DHT22;30476;53.468;9.826;2023-04-30T01:45:58;6.20;99.90
44166;DHT22;30476;53.468;9.826;2023-04-30T01:49:07;6.10;99.90
44166;DHT22;30476;53.468;9.826;2023-04-30T01:51:41;6.10;99.90
44166;DHT22;30476;53.468;9.826;2023-04-30T01:54:16;6.10;99.90
44166;DHT22;30476;53.468;9.826;2023-04-30T01:57:09;6.00;99.90
44166;DHT22;30476;53.468;9.826;2023-04-30T01:59:35;6.00;99.90
44166;DHT22;30476;53.468;9.826;2023-04-30T02:02:04;5.90;99.90
44166;DHT22;30476;53.468;9.826;2023-04-30T02:04:30;5.90;99.90
44166;DHT22;30476;53.468;9.826;2023-04-30T02:06:57;5.90;99.90
44166;DHT22;30476;53.468;9.826;2023-04-30T02:09:23;5.80;99.90
44166;DHT22;30476;53.468;9.826;2023-04-30T02:11:49;5.90;99.90
44166;DHT22;30476;53.468;9.826;2023-04-30T02:14:15;5.80;99.90
44166;DHT22;30476;53.468;9.826;2023-04-30T02:16:41;5.70;99.90
44166;DHT22;30476;53.468;9.826;2023-04-30T02:19:07;5.70;99.90
44166;DHT22;30476;53.468;9.826;2023-04-30T02:21:33;5.70;99.90
44166;DHT22;30476;53.468;9.826;2023-04-30T02:23:58;5.70;99.90
44166;DHT22;30476;53.468;9.826;2023-04-30T02:26:24;5.70;99.90
44166;DHT22;30476;53.468;9.826;2023-04-30T02:28:51;5.70;99.90
44166;DHT22;30476;53.468;9.826;2023-04-30T02:31:17;5.70;99.90
44166;DHT22;30476;53.468;9.826;2023-04-30T02:33:42;5.60;99.90
44166;DHT22;30476;53.468;9.826;2023-04-30T02:36:08;5.60;99.90
44166;DHT22;30476;53.468;9.826;2023-04-30T02:38:34;5.60;99.90
44166;DHT22;30476;53.468;9.826;2023-04-30T02:41:00;5.50;99.90
44166;DHT22;30476;53.468;9.826;2023-04-30T02:43:26;5.50;99.90
44166;DHT22;30476;53.468;9.826;2023-04-30T02:45:52;5.40;99.90
44166;DHT22;30476;53.468;9.826;2023-04-30T02:48:18;5.50;99.90
44166;DHT22;30476;53.468;9.826;2023-04-30T02:50:44;5.40;99.90
44166;DHT22;30476;53.468;9.826;2023-04-30T02:53:10;5.30;99.90
44166;DHT22;30476;53.468;9.826;2023-04-30T02:55:35;5.30;99.90
44166;DHT22;30476;53.468;9.826;2023-04-30T02:58:01;5.40;99.90
44166;DHT22;30476;53.468;9.826;2023-04-30T03:00:27;5.30;99.90
44166;DHT22;30476;53.468;9.826;2023-04-30T03:02:53;5.20;99.90
44166;DHT22;30476;53.468;9.826;2023-04-30T03:05:18;5.20;99.90
44166;DHT22;30476;53.468;9.826;2023-04-30T03:07:46;5.20;99.90
44166;DHT22;30476;53.468;9.826;2023-04-30T03:10:11;5.10;99.90
44166;DHT22;30476;53.468;9.826;2023-04-30T03:12:37;5.10;99.90
44166;DHT22;30476;53.468;9.826;2023-04-30T03:15:03;5.10;99.90
44166;DHT22;30476;53.468;9.826;2023-04-30T03:17:29;5.10;99.90
44166;DHT22;30476;53.468;9.826;2023-04-30T03:19:55;5.10;99.90
44166;DHT22;30476;53.468;9.826;2023-04-30T03:22:21;5.00;99.90
44166;DHT22;30476;53.468;9.826;2023-04-30T03:24:48;5.00;99.90
44166;DHT22;30476;53.468;9.826;2023-04-30T03:27:14;4.90;99.90
44166;DHT22;30476;53.468;9.826;2023-04-30T03:29:41;4.90;99.90
44166;DHT22;30476;53.468;9.826;2023-04-30T03:32:07;4.90;99.90
44166;DHT22;30476;53.468;9.826;2023-04-30T03:34:33;4.90;99.90
44166;DHT22;30476;53.468;9.826;2023-04-30T03:36:59;4.90;99.90
44166;DHT22;30476;53.468;9.826;2023-04-30T03:39:26;4.90;99.90
44166;DHT22;30476;53.468;9.826;2023-04-30T03:41:52;4.80;99.90
44166;DHT22;30476;53.468;9.826;2023-04-30T03:44:17;4.80;99.90
44166;DHT22;30476;53.468;9.826;2023-04-30T03:46:43;4.90;99.90
44166;DHT22;30476;53.468;9.826;2023-04-30T03:49:09;4.90;99.90
44166;DHT22;30476;53.468;9.826;2023-04-30T03:51:36;4.90;99.90
44166;DHT22;30476;53.468;9.826;2023-04-30T03:54:06;4.90;99.90
44166;DHT22;30476;53.468;9.826;2023-04-30T03:56:33;4.90;99.90
44166;DHT22;30476;53.468;9.826;2023-04-30T03:58:59;4.90;99.90
44166;DHT22;30476;53.468;9.826;2023-04-30T04:01:25;4.80;99.90
44166;DHT22;30476;53.468;9.826;2023-04-30T04:03:52;4.80;99.90
44166;DHT22;30476;53.468;9.826;2023-04-30T04:06:18;4.80;99.90
44166;DHT22;30476;53.468;9.826;2023-04-30T04:08:43;4.80;99.90
44166;DHT22;30476;53.468;9.826;2023-04-30T04:11:10;4.80;99.90
44166;DHT22;30476;53.468;9.826;2023-04-30T04:13:36;4.80;99.90
44166;DHT22;30476;53.468;9.826;2023-04-30T04:16:02;4.80;99.90
44166;DHT22;30476;53.468;9.826;2023-04-30T04:18:27;4.80;99.90
44166;DHT22;30476;53.468;9.826;2023-04-30T04:20:54;4.80;99.90
44166;DHT22;30476;53.468;9.826;2023-04-30T04:23:21;4.80;99.90
44166;DHT22;30476;53.468;9.826;2023-04-30T04:25:47;4.80;99.90
44166;DHT22;30476;53.468;9.826;2023-04-30T04:28:15;4.80;99.90
44166;DHT22;30476;53.468;9.826;2023-04-30T04:30:41;4.80;99.90
44166;DHT22;30476;53.468;9.826;2023-04-30T04:33:07;4.80;99.90
44166;DHT22;30476;53.468;9.826;2023-04-30T04:35:33;4.80;99.90
44166;DHT22;30476;53.468;9.826;2023-04-30T04:38:00;4.80;99.90
44166;DHT22;30476;53.468;9.826;2023-04-30T04:40:26;4.80;99.90
44166;DHT22;30476;53.468;9.826;2023-04-30T04:42:51;4.80;99.90
44166;DHT22;30476;53.468;9.826;2023-04-30T04:45:17;4.80;99.90
44166;DHT22;30476;53.468;9.826;2023-04-30T04:47:45;4.80;99.90
44166;DHT22;30476;53.468;9.826;2023-04-30T04:50:11;4.90;99.90
44166;DHT22;30476;53.468;9.826;2023-04-30T04:52:37;4.90;99.90
44166;DHT22;30476;53.468;9.826;2023-04-30T04:55:04;4.90;99.90
44166;DHT22;30476;53.468;9.826;2023-04-30T04:57:30;4.90;99.90
44166;DHT22;30476;53.468;9.826;2023-04-30T04:59:56;5.00;99.90
44166;DHT22;30476;53.468;9.826;2023-04-30T05:02:22;5.00;99.90
44166;DHT22;30476;53.468;9.826;2023-04-30T05:04:48;5.00;99.90
44166;DHT22;30476;53.468;9.826;2023-04-30T05:07:17;5.10;99.90
44166;DHT22;30476;53.468;9.826;2023-04-30T05:09:44;5.10;99.90
44166;DHT22;30476;53.468;9.826;2023-04-30T05:12:11;5.20;99.90
44166;DHT22;30476;53.468;9.826;2023-04-30T05:14:37;5.20;99.90
44166;DHT22;30476;53.468;9.826;2023-04-30T05:17:03;5.30;99.90
44166;DHT22;30476;53.468;9.826;2023-04-30T05:19:29;5.30;99.90
44166;DHT22;30476;53.468;9.826;2023-04-30T05:21:55;5.40;99.90
44166;DHT22;30476;53.468;9.826;2023-04-30T05:24:20;5.50;99.90
44166;DHT22;30476;53.468;9.826;2023-04-30T05:26:46;5.60;99.90
44166;DHT22;30476;53.468;9.826;2023-04-30T05:29:12;5.60;99.90
44166;DHT22;30476;53.468;9.826;2023-04-30T05:31:38;5.70;99.90
44166;DHT22;30476;53.468;9.826;2023-04-30T05:34:04;5.80;99.90
44166;DHT22;30476;53.468;9.826;2023-04-30T05:36:30;5.90;99.90
44166;DHT22;30476;53.468;9.826;2023-04-30T05:38:56;6.00;99.90
44166;DHT22;30476;53.468;9.826;2023-04-30T05:41:22;6.10;99.90
44166;DHT22;30476;53.468;9.826;2023-04-30T05:43:48;6.10;99.90
44166;DHT22;30476;53.468;9.826;2023-04-30T05:46:14;6.20;99.90
44166;DHT22;30476;53.468;9.826;2023-04-30T05:48:39;6.40;99.90
44166;DHT22;30476;53.468;9.826;2023-04-30T05:51:05;6.50;99.90
44166;DHT22;30476;53.468;9.826;2023-04-30T05:53:31;6.60;99.90
44166;DHT22;30476;53.468;9.826;2023-04-30T05:55:57;6.70;99.90
44166;DHT22;30476;53.468;9.826;2023-04-30T05:58:23;6.80;99.90
44166;DHT22;30476;53.468;9.826;2023-04-30T06:00:50;6.90;99.90
44166;DHT22;30476;53.468;9.826;2023-04-30T06:03:17;7.00;99.90
44166;DHT22;30476;53.468;9.826;2023-04-30T06:05:43;7.20;99.90
44166;DHT22;30476;53.468;9.826;2023-04-30T06:08:09;7.20;99.90
44166;DHT22;30476;53.468;9.826;2023-04-30T06:10:34;7.30;99.90
44166;DHT22;30476;53.468;9.826;2023-04-30T06:13:00;7.40;99.90
44166;DHT22;30476;53.468;9.826;2023-04-30T06:15:26;7.50;99.90
44166;DHT22;30476;53.468;9.826;2023-04-30T06:17:52;7.70;99.90
44166;DHT22;30476;53.468;9.826;2023-04-30T06:20:18;7.80;99.90
44166;DHT22;30476;53.468;9.826;2023-04-30T06:22:44;7.90;99.90
44166;DHT22;30476;53.468;9.826;2023-04-30T06:25:09;8.00;99.90
44166;DHT22;30476;53.468;9.826;2023-04-30T06:27:35;8.20;99.90
44166;DHT22;30476;53.468;9.826;2023-04-30T06:30:01;8.30;99.90
44166;DHT22;30476;53.468;9.826;2023-04-30T06:32:27;8.50;99.90
44166;DHT22;30476;53.468;9.826;2023-04-30T06:34:53;8.60;99.90
44166;DHT22;30476;53.468;9.826;2023-04-30T06:37:19;8.70;99.90
44166;DHT22;30476;53.468;9.826;2023-04-30T06:39:45;8.90;99.90
44166;DHT22;30476;53.468;9.826;2023-04-30T06:42:10;9.00;99.90
44166;DHT22;30476;53.468;9.826;2023-04-30T06:44:36;9.10;99.90
44166;DHT22;30476;53.468;9.826;2023-04-30T06:47:02;9.20;99.90
44166;DHT22;30476;53.468;9.826;2023-04-30T06:49:28;9.40;99.90
44166;DHT22;30476;53.468;9.826;2023-04-30T06:51:53;9.50;99.90
44166;DHT22;30476;53.468;9.826;2023-04-30T06:54:20;9.60;99.90
44166;DHT22;30476;53.468;9.826;2023-04-30T06:56:47;9.70;99.90
44166;DHT22;30476;53.468;9.826;2023-04-30T06:59:13;9.80;99.90
44166;DHT22;30476;53.468;9.826;2023-04-30T07:01:38;9.80;99.90
44166;DHT22;30476;53.468;9.826;2023-04-30T07:04:05;9.90;99.90
44166;DHT22;30476;53.468;9.826;2023-04-30T07:06:31;10.00;99.90
44166;DHT22;30476;53.468;9.826;2023-04-30T07:08:56;10.20;99.90
44166;DHT22;30476;53.468;9.826;2023-04-30T07:11:22;10.20;99.90
44166;DHT22;30476;53.468;9.826;2023-04-30T07:13:48;10.30;99.90
44166;DHT22;30476;53.468;9.826;2023-04-30T07:16:14;10.40;99.40
44166;DHT22;30476;53.468;9.826;2023-04-30T07:18:41;10.50;98.80
44166;DHT22;30476;53.468;9.826;2023-04-30T07:21:07;10.60;98.10
44166;DHT22;30476;53.468;9.826;2023-04-30T07:23:33;10.60;97.80
44166;DHT22;30476;53.468;9.826;2023-04-30T07:25:59;10.70;98.30
44166;DHT22;30476;53.468;9.826;2023-04-30T07:28:25;10.90;98.60
44166;DHT22;30476;53.468;9.826;2023-04-30T07:30:51;11.00;98.80
44166;DHT22;30476;53.468;9.826;2023-04-30T07:33:17;11.10;98.50
44166;DHT22;30476;53.468;9.826;2023-04-30T07:35:43;11.30;97.90
44166;DHT22;30476;53.468;9.826;2023-04-30T07:38:09;11.30;97.90
44166;DHT22;30476;53.468;9.826;2023-04-30T07:40:35;11.40;97.80
44166;DHT22;30476;53.468;9.826;2023-04-30T07:43:01;11.40;97.60
44166;DHT22;30476;53.468;9.826;2023-04-30T07:45:26;11.50;97.40
44166;DHT22;30476;53.468;9.826;2023-04-30T07:47:52;11.50;96.80
44166;DHT22;30476;53.468;9.826;2023-04-30T07:50:18;11.40;96.50
44166;DHT22;30476;53.468;9.826;2023-04-30T07:52:44;11.40;96.20
44166;DHT22;30476;53.468;9.826;2023-04-30T07:55:10;11.40;96.10
44166;DHT22;30476;53.468;9.826;2023-04-30T07:57:36;11.40;95.80
44166;DHT22;30476;53.468;9.826;2023-04-30T08:00:01;11.40;95.70
44166;DHT22;30476;53.468;9.826;2023-04-30T08:02:28;11.40;95.90
44166;DHT22;30476;53.468;9.826;2023-04-30T08:04:54;11.40;95.60
44166;DHT22;30476;53.468;9.826;2023-04-30T08:07:20;11.50;95.10
44166;DHT22;30476;53.468;9.826;2023-04-30T08:09:46;11.50;94.70
44166;DHT22;30476;53.468;9.826;2023-04-30T08:12:11;11.50;94.50
44166;DHT22;30476;53.468;9.826;2023-04-30T08:14:37;11.50;95.00
44166;DHT22;30476;53.468;9.826;2023-04-30T08:17:03;11.60;94.60
44166;DHT22;30476;53.468;9.826;2023-04-30T08:19:29;11.70;94.60
44166;DHT22;30476;53.468;9.826;2023-04-30T08:21:55;11.80;94.10
44166;DHT22;30476;53.468;9.826;2023-04-30T08:24:21;11.90;94.40
44166;DHT22;30476;53.468;9.826;2023-04-30T08:26:47;12.00;94.00
44166;DHT22;30476;53.468;9.826;2023-04-30T08:29:12;12.20;93.90
44166;DHT22;30476;53.468;9.826;2023-04-30T08:31:38;12.30;93.70
44166;DHT22;30476;53.468;9.826;2023-04-30T08:34:04;12.40;92.50
44166;DHT22;30476;53.468;9.826;2023-04-30T08:36:30;12.60;92.30
44166;DHT22;30476;53.468;9.826;2023-04-30T08:38:56;12.60;92.70
44166;DHT22;30476;53.468;9.826;2023-04-30T08:41:25;12.70;92.60
44166;DHT22;30476;53.468;9.826;2023-04-30T08:43:55;12.80;92.50
44166;DHT22;30476;53.468;9.826;2023-04-30T08:46:23;12.90;92.40
44166;DHT22;30476;53.468;9.826;2023-04-30T08:48:49;13.00;92.40
44166;DHT22;30476;53.468;9.826;2023-04-30T08:51:15;13.20;91.20
44166;DHT22;30476;53.468;9.826;2023-04-30T08:53:43;13.30;91.20
44166;DHT22;30476;53.468;9.826;2023-04-30T08:56:10;13.40;89.00
44166;DHT22;30476;53.468;9.826;2023-04-30T08:58:36;13.30;88.90
44166;DHT22;30476;53.468;9.826;2023-04-30T09:01:02;13.30;89.00
44166;DHT22;30476;53.468;9.826;2023-04-30T09:03:31;13.30;90.50
44166;DHT22;30476;53.468;9.826;2023-04-30T09:05:57;13.40;90.40
44166;DHT22;30476;53.468;9.826;2023-04-30T09:08:43;13.50;89.10
44166;DHT22;30476;53.468;9.826;2023-04-30T09:13:49;13.80;88.40
44166;DHT22;30476;53.468;9.826;2023-04-30T09:16:18;13.90;86.80
44166;DHT22;30476;53.468;9.826;2023-04-30T09:18:43;13.90;85.70
44166;DHT22;30476;53.468;9.826;2023-04-30T09:21:09;14.00;85.70
44166;DHT22;30476;53.468;9.826;2023-04-30T09:23:35;14.10;87.40
44166;DHT22;30476;53.468;9.826;2023-04-30T09:26:01;14.20;87.20
44166;DHT22;30476;53.468;9.826;2023-04-30T09:28:27;14.20;85.70
44166;DHT22;30476;53.468;9.826;2023-04-30T09:30:57;14.40;84.90
44166;DHT22;30476;53.468;9.826;2023-04-30T09:33:23;14.40;86.90
44166;DHT22;30476;53.468;9.826;2023-04-30T09:35:48;14.50;85.50
44166;DHT22;30476;53.468;9.826;2023-04-30T09:38:28;14.60;85.30
44166;DHT22;30476;53.468;9.826;2023-04-30T09:40:57;14.80;86.60
44166;DHT22;30476;53.468;9.826;2023-04-30T09:43:23;14.90;85.30
44166;DHT22;30476;53.468;9.826;2023-04-30T09:45:50;15.00;84.10
44166;DHT22;30476;53.468;9.826;2023-04-30T09:48:20;15.10;83.60
44166;DHT22;30476;53.468;9.826;2023-04-30T09:50:46;15.10;78.10
44166;DHT22;30476;53.468;9.826;2023-04-30T09:53:13;15.10;79.80
44166;DHT22;30476;53.468;9.826;2023-04-30T09:55:42;15.10;80.70
44166;DHT22;30476;53.468;9.826;2023-04-30T09:58:09;15.10;81.30
44166;DHT22;30476;53.468;9.826;2023-04-30T10:00:36;15.20;78.00
44166;DHT22;30476;53.468;9.826;2023-04-30T10:03:05;15.20;79.90
44166;DHT22;30476;53.468;9.826;2023-04-30T10:05:37;15.30;79.50
44166;DHT22;30476;53.468;9.826;2023-04-30T10:08:09;15.40;79.30
44166;DHT22;30476;53.468;9.826;2023-04-30T10:10:37;15.50;75.10
44166;DHT22;30476;53.468;9.826;2023-04-30T10:13:14;15.50;78.90
44166;DHT22;30476;53.468;9.826;2023-04-30T10:15:47;15.50;80.20
44166;DHT22;30476;53.468;9.826;2023-04-30T10:18:19;15.60;78.10
44166;DHT22;30476;53.468;9.826;2023-04-30T10:20:47;15.60;76.10
44166;DHT22;30476;53.468;9.826;2023-04-30T10:23:15;15.70;76.80
44166;DHT22;30476;53.468;9.826;2023-04-30T10:25:42;15.60;81.00
44166;DHT22;30476;53.468;9.826;2023-04-30T10:28:09;15.70;77.70
44166;DHT22;30476;53.468;9.826;2023-04-30T10:30:36;15.90;77.10
44166;DHT22;30476;53.468;9.826;2023-04-30T10:33:22;16.00;76.70
44166;DHT22;30476;53.468;9.826;2023-04-30T10:35:57;16.10;77.00
44166;DHT22;30476;53.468;9.826;2023-04-30T10:38:26;16.20;77.40
44166;DHT22;30476;53.468;9.826;2023-04-30T10:40:56;16.10;75.70
44166;DHT22;30476;53.468;9.826;2023-04-30T10:43:24;16.20;72.00
44166;DHT22;30476;53.468;9.826;2023-04-30T10:45:50;16.30;72.40
44166;DHT22;30476;53.468;9.826;2023-04-30T10:48:16;16.30;74.50
44166;DHT22;30476;53.468;9.826;2023-04-30T10:50:51;16.40;72.30
44166;DHT22;30476;53.468;9.826;2023-04-30T10:53:18;16.40;72.00
44166;DHT22;30476;53.468;9.826;2023-04-30T10:56:06;16.40;72.00
44166;DHT22;30476;53.468;9.826;2023-04-30T10:58:39;16.30;72.00
44166;DHT22;30476;53.468;9.826;2023-04-30T11:01:11;16.40;72.10
44166;DHT22;30476;53.468;9.826;2023-04-30T11:03:40;16.60;71.40
44166;DHT22;30476;53.468;9.826;2023-04-30T11:06:14;16.60;69.40
44166;DHT22;30476;53.468;9.826;2023-04-30T11:08:45;16.70;72.50
44166;DHT22;30476;53.468;9.826;2023-04-30T11:11:17;16.80;70.30
44166;DHT22;30476;53.468;9.826;2023-04-30T11:13:47;16.70;72.70
44166;DHT22;30476;53.468;9.826;2023-04-30T11:16:16;16.80;73.50
44166;DHT22;30476;53.468;9.826;2023-04-30T11:18:45;16.90;73.90
44166;DHT22;30476;53.468;9.826;2023-04-30T11:21:12;17.00;71.90
44166;DHT22;30476;53.468;9.826;2023-04-30T11:23:41;17.00;69.20
44166;DHT22;30476;53.468;9.826;2023-04-30T11:26:08;17.10;70.20
44166;DHT22;30476;53.468;9.826;2023-04-30T11:28:35;17.10;71.80
44166;DHT22;30476;53.468;9.826;2023-04-30T11:31:02;17.10;71.60
44166;DHT22;30476;53.468;9.826;2023-04-30T11:33:32;17.30;72.80
44166;DHT22;30476;53.468;9.826;2023-04-30T11:36:00;17.40;70.30
44166;DHT22;30476;53.468;9.826;2023-04-30T11:38:38;17.50;67.80
44166;DHT22;30476;53.468;9.826;2023-04-30T11:41:05;17.50;71.90
44166;DHT22;30476;53.468;9.826;2023-04-30T11:43:32;17.60;70.80
44166;DHT22;30476;53.468;9.826;2023-04-30T11:46:17;17.60;70.40
44166;DHT22;30476;53.468;9.826;2023-04-30T11:48:44;17.80;71.40
44166;DHT22;30476;53.468;9.826;2023-04-30T11:51:14;17.90;69.00
44166;DHT22;30476;53.468;9.826;2023-04-30T11:53:40;18.00;67.00
44166;DHT22;30476;53.468;9.826;2023-04-30T11:56:07;18.10;66.30
44166;DHT22;30476;53.468;9.826;2023-04-30T11:58:36;18.10;64.50
44166;DHT22;30476;53.468;9.826;2023-04-30T12:01:08;18.10;68.10
44166;DHT22;30476;53.468;9.826;2023-04-30T12:03:49;18.20;67.80
44166;DHT22;30476;53.468;9.826;2023-04-30T12:06:26;18.20;66.40
44166;DHT22;30476;53.468;9.826;2023-04-30T12:08:56;18.30;66.60
44166;DHT22;30476;53.468;9.826;2023-04-30T12:11:27;18.40;66.10
44166;DHT22;30476;53.468;9.826;2023-04-30T12:13:55;18.50;65.20
44166;DHT22;30476;53.468;9.826;2023-04-30T12:16:23;18.60;63.70
44166;DHT22;30476;53.468;9.826;2023-04-30T12:18:49;18.70;62.50
44166;DHT22;30476;53.468;9.826;2023-04-30T12:21:16;18.70;63.70
44166;DHT22;30476;53.468;9.826;2023-04-30T12:23:42;18.80;59.10
44166;DHT22;30476;53.468;9.826;2023-04-30T12:26:09;18.60;63.00
44166;DHT22;30476;53.468;9.826;2023-04-30T12:28:35;18.70;62.60
44166;DHT22;30476;53.468;9.826;2023-04-30T12:31:01;18.70;61.50
44166;DHT22;30476;53.468;9.826;2023-04-30T12:33:30;18.70;62.50
44166;DHT22;30476;53.468;9.826;2023-04-30T12:35:56;18.80;61.20
44166;DHT22;30476;53.468;9.826;2023-04-30T12:38:24;18.80;60.60
44166;DHT22;30476;53.468;9.826;2023-04-30T12:40:50;18.70;60.10
44166;DHT22;30476;53.468;9.826;2023-04-30T12:43:16;18.80;61.10
44166;DHT22;30476;53.468;9.826;2023-04-30T12:45:47;18.80;59.30
44166;DHT22;30476;53.468;9.826;2023-04-30T12:48:16;18.90;60.90
44166;DHT22;30476;53.468;9.826;2023-04-30T12:50:46;18.90;59.10
44166;DHT22;30476;53.468;9.826;2023-04-30T12:53:12;18.90;60.50
44166;DHT22;30476;53.468;9.826;2023-04-30T12:55:38;19.00;62.10
44166;DHT22;30476;53.468;9.826;2023-04-30T12:58:09;19.00;59.10
44166;DHT22;30476;53.468;9.826;2023-04-30T13:00:46;19.10;60.40
44166;DHT22;30476;53.468;9.826;2023-04-30T13:03:13;19.30;61.20
44166;DHT22;30476;53.468;9.826;2023-04-30T13:05:49;19.10;56.70
44166;DHT22;30476;53.468;9.826;2023-04-30T13:08:16;19.20;58.70
44166;DHT22;30476;53.468;9.826;2023-04-30T13:10:43;19.30;58.30
44166;DHT22;30476;53.468;9.826;2023-04-30T13:13:10;19.30;57.90
44166;DHT22;30476;53.468;9.826;2023-04-30T13:15:36;19.30;56.40
44166;DHT22;30476;53.468;9.826;2023-04-30T13:18:02;19.40;56.20
44166;DHT22;30476;53.468;9.826;2023-04-30T13:20:28;19.30;57.70
44166;DHT22;30476;53.468;9.826;2023-04-30T13:22:54;19.30;57.30
44166;DHT22;30476;53.468;9.826;2023-04-30T13:25:20;19.40;55.90
44166;DHT22;30476;53.468;9.826;2023-04-30T13:27:46;19.50;57.00
44166;DHT22;30476;53.468;9.826;2023-04-30T13:30:12;19.50;55.40
44166;DHT22;30476;53.468;9.826;2023-04-30T13:32:39;19.60;55.40
44166;DHT22;30476;53.468;9.826;2023-04-30T13:35:05;19.70;54.90
44166;DHT22;30476;53.468;9.826;2023-04-30T13:37:31;19.70;54.10
44166;DHT22;30476;53.468;9.826;2023-04-30T13:39:57;19.70;51.30
44166;DHT22;30476;53.468;9.826;2023-04-30T13:42:25;19.60;53.30
44166;DHT22;30476;53.468;9.826;2023-04-30T13:44:51;19.50;52.30
44166;DHT22;30476;53.468;9.826;2023-04-30T13:47:18;19.50;53.40
44166;DHT22;30476;53.468;9.826;2023-04-30T13:49:45;19.50;51.60
44166;DHT22;30476;53.468;9.826;2023-04-30T13:52:11;19.50;51.50
44166;DHT22;30476;53.468;9.826;2023-04-30T13:54:37;19.50;49.90
44166;DHT22;30476;53.468;9.826;2023-04-30T13:57:04;19.40;51.80
44166;DHT22;30476;53.468;9.826;2023-04-30T13:59:30;19.40;51.90
44166;DHT22;30476;53.468;9.826;2023-04-30T14:01:57;19.50;50.40
44166;DHT22;30476;53.468;9.826;2023-04-30T14:04:23;19.50;50.40
44166;DHT22;30476;53.468;9.826;2023-04-30T14:06:50;19.50;50.30
44166;DHT22;30476;53.468;9.826;2023-04-30T14:09:16;19.60;51.50
44166;DHT22;30476;53.468;9.826;2023-04-30T14:11:42;19.60;50.80
44166;DHT22;30476;53.468;9.826;2023-04-30T14:14:08;19.50;49.90
44166;DHT22;30476;53.468;9.826;2023-04-30T14:16:34;19.50;48.40
44166;DHT22;30476;53.468;9.826;2023-04-30T14:19:00;19.50;49.70
44166;DHT22;30476;53.468;9.826;2023-04-30T14:21:25;19.30;49.20
44166;DHT22;30476;53.468;9.826;2023-04-30T14:23:53;19.10;50.60
44166;DHT22;30476;53.468;9.826;2023-04-30T14:26:19;18.90;50.80
44166;DHT22;30476;53.468;9.826;2023-04-30T14:28:46;18.80;50.60
44166;DHT22;30476;53.468;9.826;2023-04-30T14:31:12;18.60;51.30
44166;DHT22;30476;53.468;9.826;2023-04-30T14:33:38;18.50;50.80
44166;DHT22;30476;53.468;9.826;2023-04-30T14:36:04;18.40;49.50
44166;DHT22;30476;53.468;9.826;2023-04-30T14:38:30;18.20;49.20
44166;DHT22;30476;53.468;9.826;2023-04-30T14:40:56;18.10;50.00
44166;DHT22;30476;53.468;9.826;2023-04-30T14:43:22;18.00;50.50
44166;DHT22;30476;53.468;9.826;2023-04-30T14:45:48;18.00;50.90
44166;DHT22;30476;53.468;9.826;2023-04-30T14:48:14;17.90;51.50
44166;DHT22;30476;53.468;9.826;2023-04-30T14:50:40;17.80;50.40
44166;DHT22;30476;53.468;9.826;2023-04-30T14:53:06;17.70;48.90
44166;DHT22;30476;53.468;9.826;2023-04-30T14:55:34;17.60;50.10
44166;DHT22;30476;53.468;9.826;2023-04-30T14:58:00;17.40;50.50
44166;DHT22;30476;53.468;9.826;2023-04-30T15:00:25;17.40;52.20
44166;DHT22;30476;53.468;9.826;2023-04-30T15:02:52;17.30;52.20
44166;DHT22;30476;53.468;9.826;2023-04-30T15:05:18;17.20;51.30
44166;DHT22;30476;53.468;9.826;2023-04-30T15:07:43;17.20;51.20
44166;DHT22;30476;53.468;9.826;2023-04-30T15:10:10;17.10;51.50
44166;DHT22;30476;53.468;9.826;2023-04-30T15:12:35;17.00;53.00
44166;DHT22;30476;53.468;9.826;2023-04-30T15:15:02;16.90;54.30
44166;DHT22;30476;53.468;9.826;2023-04-30T15:17:29;16.90;55.30
44166;DHT22;30476;53.468;9.826;2023-04-30T15:19:56;16.90;55.50
44166;DHT22;30476;53.468;9.826;2023-04-30T15:22:25;16.80;56.40
44166;DHT22;30476;53.468;9.826;2023-04-30T15:24:51;16.80;57.50
44166;DHT22;30476;53.468;9.826;2023-04-30T15:27:17;16.80;57.30
44166;DHT22;30476;53.468;9.826;2023-04-30T15:29:43;16.70;56.90
44166;DHT22;30476;53.468;9.826;2023-04-30T15:32:11;16.70;57.20
44166;DHT22;30476;53.468;9.826;2023-04-30T15:34:38;16.60;57.60
44166;DHT22;30476;53.468;9.826;2023-04-30T15:37:03;16.50;58.20
44166;DHT22;30476;53.468;9.826;2023-04-30T15:39:29;16.40;57.90
44166;DHT22;30476;53.468;9.826;2023-04-30T15:41:55;16.30;58.30
44166;DHT22;30476;53.468;9.826;2023-04-30T15:44:21;16.20;58.40
44166;DHT22;30476;53.468;9.826;2023-04-30T15:46:47;16.20;59.80
44166;DHT22;30476;53.468;9.826;2023-04-30T15:49:13;16.10;59.90